Time;durP1;ratioP1;P1;durP2;ratioP2;P2;SDS_P1;SDS_P2;PMS_P1;PMS_P2;Temp;Humidity;BMP_temperature;BMP_pressure;BME280_temperature;BME280_humidity;BME280_pressure;Samples;Min_cycle;Max_cycle;Signal;HPM_P1;HPM_P2
2021/08/28 00:02:23;;;;;;;;;;;20.50;68.90;;;;;;5001495;28;1623;-73
2021/08/28 00:04:49;;;;;;;;;;;20.50;68.80;;;;;;4986284;28;1287;-73
2021/08/28 00:07:14;;;;;;;;;;;20.50;68.80;;;;;;4991753;28;1627;-75
2021/08/28 00:09:40;;;;;;;;;;;20.50;68.90;;;;;;5004113;28;1305;-75
2021/08/28 00:12:05;;;;;;;;;;;20.50;68.90;;;;;;5001513;28;1324;-74
2021/08/28 00:14:31;;;;;;;;;;;20.50;68.90;;;;;;5002382;28;1906;-75
2021/08/28 00:16:56;;;;;;;;;;;20.50;68.90;;;;;;4984705;28;1218;-75
2021/08/28 00:19:22;;;;;;;;;;;20.50;68.90;;;;;;5003173;28;1410;-74
2021/08/28 00:21:47;;;;;;;;;;;20.50;68.90;;;;;;5001874;28;1605;-74
2021/08/28 00:24:13;;;;;;;;;;;20.50;68.90;;;;;;4984747;28;1258;-73
2021/08/28 00:26:39;;;;;;;;;;;20.50;68.90;;;;;;4982368;28;1220;-73
2021/08/28 00:29:05;;;;;;;;;;;20.50;68.90;;;;;;4984836;28;1254;-74
2021/08/28 00:31:31;;;;;;;;;;;20.50;68.90;;;;;;4986814;28;1352;-74
2021/08/28 00:33:56;;;;;;;;;;;20.50;68.90;;;;;;4986137;28;1309;-74
2021/08/28 00:36:22;;;;;;;;;;;20.50;68.90;;;;;;4985694;28;1968;-74
2021/08/28 00:38:48;;;;;;;;;;;20.50;68.90;;;;;;4984878;28;1365;-74
2021/08/28 00:41:14;;;;;;;;;;;20.50;68.90;;;;;;4983951;28;1296;-74
2021/08/28 00:43:39;;;;;;;;;;;20.50;68.90;;;;;;4983879;28;1330;-74
2021/08/28 00:46:04;;;;;;;;;;;20.50;68.90;;;;;;4983857;28;1293;-72
2021/08/28 00:48:30;;;;;;;;;;;20.50;68.90;;;;;;5007140;28;1396;-75
2021/08/28 00:50:55;;;;;;;;;;;20.50;68.90;;;;;;4994043;28;1589;-74
2021/08/28 00:53:21;;;;;;;;;;;20.50;68.90;;;;;;4993208;28;1631;-74
2021/08/28 00:55:47;;;;;;;;;;;20.50;68.90;;;;;;5011633;28;1866;-74
2021/08/28 00:58:12;;;;;;;;;;;20.50;68.90;;;;;;4993854;28;1389;-74
2021/08/28 01:00:38;;;;;;;;;;;20.50;69.00;;;;;;4993737;28;1669;-74
2021/08/28 01:03:04;;;;;;;;;;;20.50;68.90;;;;;;4975983;28;1689;-73
2021/08/28 01:05:29;;;;;;;;;;;20.50;68.90;;;;;;4975866;28;1739;-74
2021/08/28 01:07:59;;;;;;;;;;;20.50;68.90;;;;;;4989599;28;1471;-74
2021/08/28 01:10:27;;;;;;;;;;;20.50;69.00;;;;;;4996563;28;1430;-74
2021/08/28 01:12:53;;;;;;;;;;;20.50;68.90;;;;;;4980040;28;1596;-75
2021/08/28 01:15:20;;;;;;;;;;;20.50;68.90;;;;;;4979408;28;1906;-74
2021/08/28 01:17:46;;;;;;;;;;;20.50;68.90;;;;;;4979886;28;1464;-73
2021/08/28 01:20:31;;;;;;;;;;;20.50;68.90;;;;;;4979688;28;1850;-75
2021/08/28 01:22:57;;;;;;;;;;;20.50;68.90;;;;;;4979520;28;1566;-74
2021/08/28 01:25:22;;;;;;;;;;;20.50;68.90;;;;;;4979684;28;1606;-73
2021/08/28 01:27:51;;;;;;;;;;;20.50;68.90;;;;;;4979570;28;1651;-73
2021/08/28 01:30:17;;;;;;;;;;;20.50;68.90;;;;;;4979954;28;1616;-74
2021/08/28 01:32:43;;;;;;;;;;;20.40;68.90;;;;;;4979754;28;1700;-74
2021/08/28 01:35:08;;;;;;;;;;;20.50;68.90;;;;;;4979032;28;1957;-73
2021/08/28 01:37:34;;;;;;;;;;;20.50;68.90;;;;;;4979487;28;1769;-74
2021/08/28 01:40:00;;;;;;;;;;;20.50;68.90;;;;;;4979424;28;1599;-75
2021/08/28 01:42:28;;;;;;;;;;;20.50;69.00;;;;;;4979315;28;1753;-75
2021/08/28 01:44:54;;;;;;;;;;;20.50;69.00;;;;;;4978922;28;1619;-75
2021/08/28 01:47:21;;;;;;;;;;;20.50;69.00;;;;;;4980627;28;1871;-75
2021/08/28 01:49:47;;;;;;;;;;;20.40;69.00;;;;;;4980368;28;1495;-74
2021/08/28 01:52:13;;;;;;;;;;;20.50;69.00;;;;;;4996747;28;1624;-75
2021/08/28 01:54:39;;;;;;;;;;;20.50;69.00;;;;;;5017919;28;1968;-74
2021/08/28 01:57:04;;;;;;;;;;;20.50;69.00;;;;;;5003199;28;1401;-74
2021/08/28 01:59:30;;;;;;;;;;;20.40;69.00;;;;;;4979085;28;1678;-75
2021/08/28 02:01:55;;;;;;;;;;;20.50;69.00;;;;;;4979021;28;1629;-76
2021/08/28 02:04:21;;;;;;;;;;;20.50;69.00;;;;;;5005439;28;1136;-76
2021/08/28 02:06:49;;;;;;;;;;;20.50;69.00;;;;;;5013945;28;1494;-75
2021/08/28 02:09:22;;;;;;;;;;;20.40;69.00;;;;;;4988460;28;1458;-76
2021/08/28 02:12:00;;;;;;;;;;;20.40;69.00;;;;;;4981254;28;1265;-76
2021/08/28 02:14:27;;;;;;;;;;;20.50;69.80;;;;;;4978590;28;1247;-74
2021/08/28 02:16:53;;;;;;;;;;;20.50;69.00;;;;;;5009237;28;1203;-76
2021/08/28 02:19:25;;;;;;;;;;;20.40;69.00;;;;;;4978459;28;1423;-76
2021/08/28 02:21:51;;;;;;;;;;;20.50;69.10;;;;;;4996248;28;1268;-75
2021/08/28 02:24:19;;;;;;;;;;;20.50;69.10;;;;;;4995364;28;1288;-75
2021/08/28 02:26:46;;;;;;;;;;;20.40;69.00;;;;;;4978435;28;1486;-75
2021/08/28 02:29:13;;;;;;;;;;;20.40;69.10;;;;;;4978295;28;1282;-76
2021/08/28 02:31:41;;;;;;;;;;;20.50;69.10;;;;;;4985240;28;1248;-74
2021/08/28 02:34:07;;;;;;;;;;;20.40;69.10;;;;;;4984348;28;1285;-72
2021/08/28 02:36:32;;;;;;;;;;;20.40;69.10;;;;;;4997715;28;1964;-72
2021/08/28 02:38:58;;;;;;;;;;;20.40;69.10;;;;;;4997539;28;1312;-72
2021/08/28 02:41:23;;;;;;;;;;;20.40;69.10;;;;;;4997466;28;1344;-72
2021/08/28 02:43:48;;;;;;;;;;;20.50;69.10;;;;;;4997255;28;1301;-73
2021/08/28 02:46:14;;;;;;;;;;;20.40;69.10;;;;;;5014744;28;1295;-73
2021/08/28 02:48:40;;;;;;;;;;;20.40;69.10;;;;;;5014879;28;1298;-73
2021/08/28 02:51:07;;;;;;;;;;;20.40;69.10;;;;;;4990128;28;1390;-72
2021/08/28 02:53:32;;;;;;;;;;;20.40;69.10;;;;;;4977904;28;1391;-73
2021/08/28 02:55:57;;;;;;;;;;;20.40;69.10;;;;;;4988568;28;1910;-71
2021/08/28 02:58:23;;;;;;;;;;;20.40;69.10;;;;;;4977820;28;1249;-74
2021/08/28 03:00:48;;;;;;;;;;;20.40;69.20;;;;;;4994908;28;1352;-73
2021/08/28 03:03:14;;;;;;;;;;;20.40;69.10;;;;;;4994840;28;1292;-73
2021/08/28 03:05:39;;;;;;;;;;;20.40;69.20;;;;;;4966143;28;1585;-73
2021/08/28 03:08:05;;;;;;;;;;;20.40;69.90;;;;;;4990147;28;1273;-73
2021/08/28 03:10:31;;;;;;;;;;;20.40;69.10;;;;;;4977580;28;1345;-73
2021/08/28 03:12:56;;;;;;;;;;;20.40;69.10;;;;;;4977536;28;1269;-73
2021/08/28 03:15:22;;;;;;;;;;;20.40;69.20;;;;;;4976879;28;1950;-73
2021/08/28 03:17:47;;;;;;;;;;;20.40;69.20;;;;;;4994984;28;1244;-73
2021/08/28 03:20:13;;;;;;;;;;;20.40;69.10;;;;;;4977413;28;1320;-73
2021/08/28 03:22:39;;;;;;;;;;;20.40;69.20;;;;;;4994589;28;1260;-73
2021/08/28 03:25:05;;;;;;;;;;;20.40;69.20;;;;;;4994404;28;1285;-73
2021/08/28 03:27:31;;;;;;;;;;;20.40;69.20;;;;;;4977388;28;1272;-73
2021/08/28 03:29:57;;;;;;;;;;;20.40;69.20;;;;;;4976952;28;1353;-73
2021/08/28 03:32:22;;;;;;;;;;;20.40;69.20;;;;;;4993664;28;1351;-74
2021/08/28 03:34:47;;;;;;;;;;;20.40;69.20;;;;;;4994206;28;1957;-75
2021/08/28 03:37:13;;;;;;;;;;;20.40;69.20;;;;;;4977089;28;1261;-74
2021/08/28 03:39:39;;;;;;;;;;;20.40;69.20;;;;;;4994438;28;1276;-74
2021/08/28 03:42:05;;;;;;;;;;;20.40;69.20;;;;;;4977599;28;1375;-74
2021/08/28 03:44:30;;;;;;;;;;;20.50;69.20;;;;;;5005962;28;1293;-74
2021/08/28 03:46:56;;;;;;;;;;;20.40;69.20;;;;;;5008016;28;1560;-74
2021/08/28 03:49:21;;;;;;;;;;;20.40;69.20;;;;;;5013878;28;1269;-73
2021/08/28 03:51:47;;;;;;;;;;;20.40;69.20;;;;;;5001262;28;1362;-74
2021/08/28 03:54:12;;;;;;;;;;;20.40;69.20;;;;;;4993762;28;1394;-74
2021/08/28 03:56:38;;;;;;;;;;;20.40;69.20;;;;;;5005270;28;1918;-73
2021/08/28 03:59:03;;;;;;;;;;;20.40;69.20;;;;;;4993900;28;1294;-74
2021/08/28 04:01:29;;;;;;;;;;;20.40;69.20;;;;;;4994061;28;1350;-74
2021/08/28 04:03:54;;;;;;;;;;;20.40;69.20;;;;;;4993837;28;1352;-74
2021/08/28 04:06:19;;;;;;;;;;;20.40;69.20;;;;;;5006165;28;1465;-74
2021/08/28 04:08:47;;;;;;;;;;;20.40;69.20;;;;;;4996089;28;1323;-74
2021/08/28 04:11:13;;;;;;;;;;;20.40;69.20;;;;;;4976795;28;1446;-74
2021/08/28 04:13:40;;;;;;;;;;;20.40;69.20;;;;;;4993397;28;1571;-73
2021/08/28 04:16:06;;;;;;;;;;;20.40;69.20;;;;;;4969561;28;1899;-75
2021/08/28 04:18:31;;;;;;;;;;;20.40;69.20;;;;;;4995431;28;1129;-74
2021/08/28 04:20:57;;;;;;;;;;;20.40;69.20;;;;;;5000523;28;1394;-74
2021/08/28 04:23:22;;;;;;;;;;;20.40;69.20;;;;;;4993413;28;1504;-74
2021/08/28 04:25:47;;;;;;;;;;;20.40;69.20;;;;;;4993580;28;1271;-74
2021/08/28 04:28:13;;;;;;;;;;;20.40;69.20;;;;;;4993441;28;1309;-74
2021/08/28 04:30:38;;;;;;;;;;;20.40;69.20;;;;;;4993402;28;1367;-75
2021/08/28 04:33:04;;;;;;;;;;;20.40;69.20;;;;;;4993342;28;1408;-74
2021/08/28 04:35:29;;;;;;;;;;;20.40;69.20;;;;;;4987460;28;1965;-74
2021/08/28 04:37:55;;;;;;;;;;;20.40;69.20;;;;;;4995021;28;1382;-74
2021/08/28 04:40:20;;;;;;;;;;;20.40;69.20;;;;;;4998062;28;1251;-74
2021/08/28 04:42:45;;;;;;;;;;;20.40;69.20;;;;;;4981944;28;1313;-74
2021/08/28 04:45:11;;;;;;;;;;;20.40;69.20;;;;;;5012754;28;1153;-74
2021/08/28 04:47:36;;;;;;;;;;;20.40;69.20;;;;;;5013061;28;1293;-74
2021/08/28 04:50:02;;;;;;;;;;;20.40;69.20;;;;;;4995371;28;1198;-74
2021/08/28 04:52:27;;;;;;;;;;;20.40;69.20;;;;;;4999625;28;1353;-75
2021/08/28 04:54:53;;;;;;;;;;;20.40;69.20;;;;;;4990864;28;1930;-74
2021/08/28 04:57:18;;;;;;;;;;;20.40;69.20;;;;;;4996727;28;1310;-74
2021/08/28 04:59:44;;;;;;;;;;;20.40;69.20;;;;;;4993162;28;1252;-73
2021/08/28 05:02:09;;;;;;;;;;;20.40;69.20;;;;;;4975804;28;1374;-73
2021/08/28 05:04:35;;;;;;;;;;;20.40;69.30;;;;;;4992801;28;1308;-72
2021/08/28 05:07:00;;;;;;;;;;;20.40;69.20;;;;;;5007512;28;1328;-74
2021/08/28 05:09:26;;;;;;;;;;;20.40;69.20;;;;;;4993269;28;1320;-74
2021/08/28 05:11:51;;;;;;;;;;;20.40;69.20;;;;;;4993107;28;1309;-73
2021/08/28 05:14:17;;;;;;;;;;;20.40;69.30;;;;;;4992653;28;1285;-75
2021/08/28 05:16:42;;;;;;;;;;;20.40;69.20;;;;;;4992951;28;1887;-73
2021/08/28 05:19:08;;;;;;;;;;;20.40;69.20;;;;;;4993232;28;1308;-73
2021/08/28 05:21:33;;;;;;;;;;;20.40;69.30;;;;;;4992818;28;1275;-72
2021/08/28 05:23:58;;;;;;;;;;;20.40;69.30;;;;;;4989771;28;1375;-71
2021/08/28 05:26:24;;;;;;;;;;;20.40;69.20;;;;;;5011145;28;1885;-71
2021/08/28 05:28:49;;;;;;;;;;;20.40;69.30;;;;;;5011486;28;1062;-71
2021/08/28 05:31:15;;;;;;;;;;;20.40;69.20;;;;;;5007203;28;1706;-69
2021/08/28 05:33:40;;;;;;;;;;;20.40;69.30;;;;;;4992107;28;1029;-69
2021/08/28 05:36:06;;;;;;;;;;;20.40;69.30;;;;;;4974419;28;1978;-69
2021/08/28 05:38:31;;;;;;;;;;;20.40;69.30;;;;;;4992017;28;1312;-69
2021/08/28 05:40:57;;;;;;;;;;;20.40;69.30;;;;;;4991633;28;1384;-70
2021/08/28 05:43:22;;;;;;;;;;;20.40;69.30;;;;;;4974202;28;1351;-70
2021/08/28 05:45:48;;;;;;;;;;;20.40;69.30;;;;;;5005210;28;1153;-69
2021/08/28 05:48:13;;;;;;;;;;;20.40;69.30;;;;;;5001576;28;1139;-71
2021/08/28 05:50:38;;;;;;;;;;;20.40;69.30;;;;;;4995130;28;1264;-72
2021/08/28 05:53:04;;;;;;;;;;;20.40;69.30;;;;;;5001777;28;1076;-70
2021/08/28 05:55:29;;;;;;;;;;;20.40;69.30;;;;;;5006988;28;1965;-69
2021/08/28 05:57:55;;;;;;;;;;;20.40;69.30;;;;;;4995732;28;1286;-75
2021/08/28 06:00:20;;;;;;;;;;;20.40;69.30;;;;;;5011225;28;1939;-74
2021/08/28 06:02:46;;;;;;;;;;;20.40;69.30;;;;;;4995316;28;1382;-75
2021/08/28 06:05:11;;;;;;;;;;;20.40;69.30;;;;;;4994764;28;1238;-75
2021/08/28 06:07:37;;;;;;;;;;;20.40;69.40;;;;;;5001882;28;1200;-75
2021/08/28 06:10:02;;;;;;;;;;;20.40;69.50;;;;;;4978650;28;1318;-75
2021/08/28 06:12:28;;;;;;;;;;;20.40;69.40;;;;;;4987451;28;1368;-75
2021/08/28 06:14:53;;;;;;;;;;;20.50;69.50;;;;;;4987574;28;1951;-75
2021/08/28 06:17:18;;;;;;;;;;;20.40;69.30;;;;;;4996106;28;1336;-75
2021/08/28 06:19:44;;;;;;;;;;;20.50;69.40;;;;;;4995692;28;1382;-73
2021/08/28 06:22:09;;;;;;;;;;;20.40;69.30;;;;;;4978352;28;1373;-73
2021/08/28 06:24:35;;;;;;;;;;;20.50;69.40;;;;;;4976401;28;1506;-69
2021/08/28 06:27:02;;;;;;;;;;;20.50;69.40;;;;;;4990728;28;1253;-71
2021/08/28 06:29:27;;;;;;;;;;;20.50;69.40;;;;;;4997437;28;1344;-72
2021/08/28 06:31:52;;;;;;;;;;;20.50;69.30;;;;;;5004772;28;1302;-74
2021/08/28 06:34:18;;;;;;;;;;;20.50;69.40;;;;;;5010172;28;1261;-74
2021/08/28 06:36:43;;;;;;;;;;;20.50;69.40;;;;;;5013914;28;1952;-73
2021/08/28 06:39:09;;;;;;;;;;;20.50;69.40;;;;;;5014225;28;1296;-73
2021/08/28 06:41:34;;;;;;;;;;;20.50;69.30;;;;;;4996450;28;1433;-73
2021/08/28 06:44:00;;;;;;;;;;;20.50;69.40;;;;;;4998376;28;1163;-73
2021/08/28 06:46:26;;;;;;;;;;;20.50;69.40;;;;;;4995280;28;1300;-72
2021/08/28 06:48:52;;;;;;;;;;;20.50;69.40;;;;;;4995601;28;1311;-71
2021/08/28 06:51:17;;;;;;;;;;;20.50;69.40;;;;;;5003926;28;1279;-71
2021/08/28 06:53:43;;;;;;;;;;;20.50;69.40;;;;;;5014571;28;1238;-71
2021/08/28 06:56:08;;;;;;;;;;;20.50;69.40;;;;;;4994068;28;1902;-73
2021/08/28 06:58:33;;;;;;;;;;;20.50;69.40;;;;;;4995630;28;1308;-73
2021/08/28 07:00:59;;;;;;;;;;;20.50;69.40;;;;;;5003368;28;1358;-75
2021/08/28 07:03:24;;;;;;;;;;;20.50;69.40;;;;;;5001260;28;1300;-75
2021/08/28 07:05:50;;;;;;;;;;;20.50;69.40;;;;;;4999046;28;1323;-75
2021/08/28 07:08:15;;;;;;;;;;;20.40;69.30;;;;;;5004927;28;1314;-73
2021/08/28 07:10:41;;;;;;;;;;;20.50;69.40;;;;;;4994785;28;1343;-74
2021/08/28 07:13:06;;;;;;;;;;;20.50;69.30;;;;;;4977259;28;1308;-74
2021/08/28 07:15:31;;;;;;;;;;;20.50;69.30;;;;;;4994760;28;1906;-74
2021/08/28 07:17:57;;;;;;;;;;;20.40;69.20;;;;;;4990485;28;1314;-74
2021/08/28 07:20:22;;;;;;;;;;;20.50;69.30;;;;;;4994838;28;1319;-74
2021/08/28 07:22:48;;;;;;;;;;;20.40;69.20;;;;;;4994654;28;1225;-73
2021/08/28 07:25:13;;;;;;;;;;;20.50;69.30;;;;;;4994219;28;1332;-74
2021/08/28 07:27:39;;;;;;;;;;;20.50;69.30;;;;;;4977156;28;1428;-74
2021/08/28 07:30:04;;;;;;;;;;;20.40;69.20;;;;;;4977289;28;1133;-73
2021/08/28 07:32:30;;;;;;;;;;;20.50;69.30;;;;;;5001150;28;1377;-73
2021/08/28 07:34:55;;;;;;;;;;;20.50;69.30;;;;;;4996051;28;1902;-75
2021/08/28 07:37:22;;;;;;;;;;;20.40;69.20;;;;;;5000428;28;1140;-73
2021/08/28 07:39:47;;;;;;;;;;;20.40;69.30;;;;;;4977058;28;1336;-74
2021/08/28 07:42:13;;;;;;;;;;;20.40;69.30;;;;;;4976857;28;1397;-74
2021/08/28 07:44:39;;;;;;;;;;;20.40;69.30;;;;;;4994102;28;1296;-73
2021/08/28 07:47:04;;;;;;;;;;;20.40;69.30;;;;;;4976877;28;1320;-75
2021/08/28 07:49:29;;;;;;;;;;;20.40;69.30;;;;;;4976908;28;1242;-74
2021/08/28 07:51:55;;;;;;;;;;;20.40;69.30;;;;;;5006970;28;1204;-73
2021/08/28 07:54:20;;;;;;;;;;;20.50;69.40;;;;;;5002993;28;1198;-73
2021/08/28 07:56:46;;;;;;;;;;;20.50;69.40;;;;;;5006631;28;1902;-73
2021/08/28 07:59:11;;;;;;;;;;;20.50;69.40;;;;;;5001600;28;1319;-74
2021/08/28 08:01:37;;;;;;;;;;;20.40;69.30;;;;;;5000238;28;1385;-74
2021/08/28 08:04:02;;;;;;;;;;;20.40;69.40;;;;;;5007015;28;1165;-74
2021/08/28 08:06:27;;;;;;;;;;;20.50;69.40;;;;;;5020774;28;1303;-74
2021/08/28 08:08:53;;;;;;;;;;;20.50;69.40;;;;;;5000504;28;1350;-74
2021/08/28 08:11:18;;;;;;;;;;;20.50;69.40;;;;;;4995906;28;1398;-74
2021/08/28 08:13:44;;;;;;;;;;;20.40;69.40;;;;;;5013154;28;1325;-74
2021/08/28 08:16:09;;;;;;;;;;;20.50;69.50;;;;;;4995733;28;1919;-74
2021/08/28 08:18:35;;;;;;;;;;;20.50;69.50;;;;;;5012919;28;1446;-74
2021/08/28 08:21:03;;;;;;;;;;;20.50;69.40;;;;;;5013139;28;1283;-72
2021/08/28 08:23:28;;;;;;;;;;;20.40;69.40;;;;;;5013130;28;1392;-72
2021/08/28 08:25:54;;;;;;;;;;;20.50;69.50;;;;;;5013073;28;1300;-74
2021/08/28 08:28:19;;;;;;;;;;;20.50;69.50;;;;;;5013230;28;1381;-74
2021/08/28 08:30:45;;;;;;;;;;;20.50;69.50;;;;;;5013199;28;1643;-74
2021/08/28 08:33:10;;;;;;;;;;;20.50;69.50;;;;;;5012892;28;1351;-73
2021/08/28 08:35:35;;;;;;;;;;;20.50;69.50;;;;;;5013031;28;1964;-73
2021/08/28 08:38:02;;;;;;;;;;;20.50;69.50;;;;;;5013062;28;1361;-73
2021/08/28 08:40:27;;;;;;;;;;;20.50;69.50;;;;;;4995590;28;1304;-74
2021/08/28 08:42:56;;;;;;;;;;;20.50;69.50;;;;;;5012860;28;1380;-73
2021/08/28 08:45:24;;;;;;;;;;;20.50;69.50;;;;;;5012639;28;1423;-73
2021/08/28 08:47:49;;;;;;;;;;;20.50;69.60;;;;;;5012970;28;1358;-74
2021/08/28 08:50:16;;;;;;;;;;;20.50;69.50;;;;;;5012610;28;1218;-73
2021/08/28 08:52:41;;;;;;;;;;;20.50;69.60;;;;;;4976015;28;1345;-74
2021/08/28 08:55:07;;;;;;;;;;;20.50;69.60;;;;;;4986041;28;2301;-73
2021/08/28 08:57:33;;;;;;;;;;;20.50;70.30;;;;;;4993348;28;1323;-74
2021/08/28 08:59:58;;;;;;;;;;;20.50;69.60;;;;;;4975979;28;1265;-74
2021/08/28 09:02:23;;;;;;;;;;;20.50;69.60;;;;;;4975846;28;1316;-73
2021/08/28 09:04:49;;;;;;;;;;;20.50;70.40;;;;;;4993024;28;1332;-74
2021/08/28 09:07:14;;;;;;;;;;;20.50;69.70;;;;;;5007963;28;1309;-74
2021/08/28 09:09:40;;;;;;;;;;;20.50;69.70;;;;;;4975779;28;1317;-74
2021/08/28 09:12:06;;;;;;;;;;;20.50;69.70;;;;;;4993020;28;1374;-74
2021/08/28 09:14:32;;;;;;;;;;;20.50;69.70;;;;;;4975714;28;1327;-74
2021/08/28 09:16:57;;;;;;;;;;;20.50;69.70;;;;;;4994682;28;1894;-75
2021/08/28 09:19:34;;;;;;;;;;;20.50;69.70;;;;;;4995152;28;1368;-75
2021/08/28 09:22:00;;;;;;;;;;;20.50;69.70;;;;;;4982882;28;1301;-75
2021/08/28 09:24:25;;;;;;;;;;;20.50;69.70;;;;;;4994688;28;1281;-76
2021/08/28 09:26:50;;;;;;;;;;;20.50;69.70;;;;;;4994897;28;1308;-75
2021/08/28 09:29:16;;;;;;;;;;;20.50;69.70;;;;;;4994574;28;1356;-75
2021/08/28 09:31:45;;;;;;;;;;;20.50;69.80;;;;;;4996545;28;1339;-75
2021/08/28 09:34:13;;;;;;;;;;;20.50;69.70;;;;;;4979068;28;1432;-74
2021/08/28 09:36:39;;;;;;;;;;;20.40;69.70;;;;;;4996473;28;1902;-75
2021/08/28 09:39:04;;;;;;;;;;;20.50;69.80;;;;;;4974758;28;1553;-75
2021/08/28 09:41:31;;;;;;;;;;;20.40;69.70;;;;;;5008905;28;1292;-75
2021/08/28 09:44:06;;;;;;;;;;;20.50;69.80;;;;;;4993365;28;1270;-75
2021/08/28 09:46:32;;;;;;;;;;;20.50;69.80;;;;;;4998560;28;1295;-75
2021/08/28 09:48:58;;;;;;;;;;;20.50;69.80;;;;;;4983276;28;1096;-75
2021/08/28 09:51:23;;;;;;;;;;;20.50;70.50;;;;;;4988277;28;1380;-76
2021/08/28 09:53:57;;;;;;;;;;;20.50;69.80;;;;;;5012800;28;1335;-75
2021/08/28 09:56:24;;;;;;;;;;;20.50;69.80;;;;;;4990000;28;1902;-75
2021/08/28 09:58:50;;;;;;;;;;;20.40;69.70;;;;;;4991947;28;1157;-75
2021/08/28 10:01:15;;;;;;;;;;;20.50;69.80;;;;;;5007133;28;1528;-75
2021/08/28 10:03:40;;;;;;;;;;;20.50;69.80;;;;;;4993756;28;1708;-76
2021/08/28 10:06:06;;;;;;;;;;;20.50;69.80;;;;;;5004653;28;1282;-75
2021/08/28 10:08:31;;;;;;;;;;;20.50;69.80;;;;;;4983943;28;1328;-75
2021/08/28 10:10:57;;;;;;;;;;;20.50;69.80;;;;;;4988928;28;1379;-75
2021/08/28 10:13:22;;;;;;;;;;;20.40;69.80;;;;;;4984692;28;1309;-75
2021/08/28 10:15:48;;;;;;;;;;;20.40;69.70;;;;;;4998063;28;1907;-74
2021/08/28 10:18:13;;;;;;;;;;;20.40;69.80;;;;;;4981490;28;1411;-75
2021/08/28 10:20:39;;;;;;;;;;;20.40;69.80;;;;;;5005951;28;1348;-75
2021/08/28 10:23:05;;;;;;;;;;;20.50;69.80;;;;;;4978135;28;1300;-74
2021/08/28 10:25:32;;;;;;;;;;;20.50;69.90;;;;;;4978390;28;1331;-75
2021/08/28 10:27:57;;;;;;;;;;;20.40;69.80;;;;;;4978561;28;1309;-75
2021/08/28 10:30:23;;;;;;;;;;;20.50;69.90;;;;;;4978406;28;1344;-75
2021/08/28 10:32:49;;;;;;;;;;;20.40;69.80;;;;;;4995377;28;1293;-75
2021/08/28 10:35:15;;;;;;;;;;;20.40;69.80;;;;;;4995258;28;1994;-75
2021/08/28 10:37:40;;;;;;;;;;;20.50;69.90;;;;;;4995632;28;1307;-75
2021/08/28 10:40:26;;;;;;;;;;;20.50;69.90;;;;;;4978476;28;1256;-75
2021/08/28 10:42:52;;;;;;;;;;;20.50;69.90;;;;;;5000602;28;1317;-75
2021/08/28 10:45:24;;;;;;;;;;;20.50;69.90;;;;;;4985057;28;1277;-75
2021/08/28 10:47:50;;;;;;;;;;;20.50;69.90;;;;;;4978044;28;1265;-75
2021/08/28 10:50:16;;;;;;;;;;;20.50;69.90;;;;;;4978336;28;1183;-75
2021/08/28 10:52:43;;;;;;;;;;;20.40;69.80;;;;;;4997511;28;1301;-75
2021/08/28 10:55:11;;;;;;;;;;;20.40;69.80;;;;;;5011762;28;1894;-75
2021/08/28 10:57:37;;;;;;;;;;;20.40;69.90;;;;;;4995316;28;1291;-75
2021/08/28 11:00:09;;;;;;;;;;;20.40;69.90;;;;;;4994962;28;1324;-75
2021/08/28 11:02:50;;;;;;;;;;;20.40;69.90;;;;;;4977760;28;1444;-75
2021/08/28 11:05:19;;;;;;;;;;;20.50;70.00;;;;;;4990424;28;1301;-75
2021/08/28 11:07:45;;;;;;;;;;;20.50;70.00;;;;;;5009669;28;1187;-75
2021/08/28 11:10:11;;;;;;;;;;;20.50;70.00;;;;;;4994913;28;1264;-74
2021/08/28 11:12:43;;;;;;;;;;;20.40;69.90;;;;;;4987887;28;1370;-75
2021/08/28 11:15:24;;;;;;;;;;;20.40;70.00;;;;;;4996160;28;1919;-75
2021/08/28 11:17:50;;;;;;;;;;;20.50;70.00;;;;;;4995043;28;1313;-75
2021/08/28 11:20:45;;;;;;;;;;;20.50;70.00;;;;;;4977362;28;1262;-75
2021/08/28 11:23:14;;;;;;;;;;;20.50;70.00;;;;;;4977647;28;1500;-75
2021/08/28 11:25:49;;;;;;;;;;;20.40;70.00;;;;;;4977752;28;1280;-75
2021/08/28 11:28:15;;;;;;;;;;;20.50;70.00;;;;;;4977343;28;1293;-75
2021/08/28 11:30:46;;;;;;;;;;;20.40;70.00;;;;;;4977262;28;1359;-75
2021/08/28 11:33:21;;;;;;;;;;;20.50;70.00;;;;;;5007336;28;1132;-75
2021/08/28 11:35:48;;;;;;;;;;;20.50;70.00;;;;;;5008679;28;1910;-74
2021/08/28 11:38:13;;;;;;;;;;;20.40;70.10;;;;;;4996693;28;1260;-75
2021/08/28 11:40:39;;;;;;;;;;;20.40;70.10;;;;;;4996325;28;1348;-75
2021/08/28 11:43:05;;;;;;;;;;;20.40;70.10;;;;;;5013771;28;1258;-75
2021/08/28 11:45:32;;;;;;;;;;;20.40;70.10;;;;;;5013760;28;1312;-74
2021/08/28 11:47:57;;;;;;;;;;;20.40;70.10;;;;;;4996442;28;1281;-74
2021/08/28 11:50:30;;;;;;;;;;;20.40;70.10;;;;;;4994849;28;1085;-74
2021/08/28 11:52:55;;;;;;;;;;;20.40;70.10;;;;;;4976232;28;1308;-75
2021/08/28 11:55:20;;;;;;;;;;;20.40;70.20;;;;;;5004693;28;1879;-74
2021/08/28 11:57:58;;;;;;;;;;;20.40;70.10;;;;;;4980475;28;1304;-73
2021/08/28 12:00:26;;;;;;;;;;;20.40;70.10;;;;;;4994407;28;1505;-74
2021/08/28 12:02:55;;;;;;;;;;;20.40;70.00;;;;;;4983028;28;1758;-74
2021/08/28 12:05:20;;;;;;;;;;;20.50;70.10;;;;;;4981745;28;1359;-73
2021/08/28 12:07:50;;;;;;;;;;;20.40;70.10;;;;;;4986628;28;1570;-74
2021/08/28 12:10:16;;;;;;;;;;;20.50;70.10;;;;;;4982490;28;1436;-74
2021/08/28 12:12:41;;;;;;;;;;;20.40;70.00;;;;;;4993730;28;1200;-74
2021/08/28 12:15:07;;;;;;;;;;;20.40;70.10;;;;;;4993495;28;1979;-74
2021/08/28 12:17:32;;;;;;;;;;;20.40;70.10;;;;;;4993735;28;1339;-74
2021/08/28 12:19:58;;;;;;;;;;;20.40;70.00;;;;;;4993937;28;1326;-74
2021/08/28 12:22:24;;;;;;;;;;;20.40;70.00;;;;;;4993813;28;1224;-74
2021/08/28 12:24:50;;;;;;;;;;;20.40;70.10;;;;;;4993869;28;1218;-74
2021/08/28 12:27:15;;;;;;;;;;;20.40;70.10;;;;;;4993609;28;1068;-74
2021/08/28 12:29:52;;;;;;;;;;;20.40;70.10;;;;;;4976150;28;1269;-74
2021/08/28 12:32:24;;;;;;;;;;;20.40;70.10;;;;;;4976637;28;1252;-73
2021/08/28 12:34:50;;;;;;;;;;;20.40;70.10;;;;;;4963175;28;1185;-74
2021/08/28 12:37:19;;;;;;;;;;;20.40;70.10;;;;;;4989050;28;1910;-74
2021/08/28 12:39:47;;;;;;;;;;;20.40;70.10;;;;;;4993523;28;1132;-75
2021/08/28 12:42:16;;;;;;;;;;;20.40;70.10;;;;;;4976006;28;1365;-74
2021/08/28 12:44:45;;;;;;;;;;;20.40;70.10;;;;;;4975881;28;1342;-74
2021/08/28 12:47:10;;;;;;;;;;;20.50;70.20;;;;;;4993536;28;1127;-74
2021/08/28 12:49:36;;;;;;;;;;;20.40;70.10;;;;;;4976018;28;1101;-74
2021/08/28 12:52:06;;;;;;;;;;;20.40;70.10;;;;;;4990465;28;1270;-74
2021/08/28 12:54:46;;;;;;;;;;;20.40;70.10;;;;;;4995816;28;1080;-74
2021/08/28 12:57:16;;;;;;;;;;;20.40;70.10;;;;;;4998635;28;1959;-73
2021/08/28 12:59:43;;;;;;;;;;;20.40;70.10;;;;;;4975986;28;1057;-74
2021/08/28 13:02:13;;;;;;;;;;;20.40;70.20;;;;;;4975823;28;1374;-74
2021/08/28 13:04:38;;;;;;;;;;;20.50;70.20;;;;;;4977675;28;1081;-73
2021/08/28 13:07:14;;;;;;;;;;;20.40;70.20;;;;;;4993856;28;1301;-74
2021/08/28 13:09:46;;;;;;;;;;;20.50;70.20;;;;;;4980012;28;1187;-74
2021/08/28 13:12:12;;;;;;;;;;;20.40;70.20;;;;;;5004381;28;1353;-74
2021/08/28 13:14:47;;;;;;;;;;;20.40;70.20;;;;;;5016451;28;1055;-74
2021/08/28 13:17:12;;;;;;;;;;;20.40;70.20;;;;;;4999176;28;1902;-74
2021/08/28 13:19:38;;;;;;;;;;;20.40;70.20;;;;;;5016580;28;1301;-74
2021/08/28 13:22:03;;;;;;;;;;;20.40;70.20;;;;;;5016451;28;1476;-74
2021/08/28 13:24:29;;;;;;;;;;;20.40;70.20;;;;;;5016306;28;1171;-73
2021/08/28 13:26:58;;;;;;;;;;;20.40;70.20;;;;;;5016621;28;1092;-74
2021/08/28 13:29:24;;;;;;;;;;;20.40;70.20;;;;;;5016689;28;1084;-74
2021/08/28 13:31:59;;;;;;;;;;;20.50;70.30;;;;;;5016442;28;1272;-74
2021/08/28 13:34:25;;;;;;;;;;;20.50;70.30;;;;;;4998593;28;1249;-74
2021/08/28 13:36:50;;;;;;;;;;;20.40;70.30;;;;;;4998622;28;1962;-73
2021/08/28 13:39:15;;;;;;;;;;;20.50;70.30;;;;;;5016376;28;1120;-73
2021/08/28 13:41:41;;;;;;;;;;;20.40;70.20;;;;;;5016378;28;1292;-74
2021/08/28 13:44:06;;;;;;;;;;;20.40;70.30;;;;;;4998945;28;1347;-74
2021/08/28 13:46:32;;;;;;;;;;;20.40;70.30;;;;;;5016422;28;1171;-73
2021/08/28 13:48:59;;;;;;;;;;;20.40;70.30;;;;;;4998594;28;1155;-73
2021/08/28 13:51:24;;;;;;;;;;;20.40;70.30;;;;;;5006742;28;1399;-73
2021/08/28 13:53:49;;;;;;;;;;;20.50;70.30;;;;;;4996164;28;1152;-74
2021/08/28 13:56:15;;;;;;;;;;;20.40;70.20;;;;;;5006520;28;1898;-73
2021/08/28 13:58:40;;;;;;;;;;;20.40;70.20;;;;;;4996383;28;1325;-74
2021/08/28 14:01:06;;;;;;;;;;;20.40;70.30;;;;;;4996092;28;1296;-73
2021/08/28 14:03:31;;;;;;;;;;;20.50;70.30;;;;;;4996123;28;1168;-73
2021/08/28 14:05:56;;;;;;;;;;;20.40;70.30;;;;;;5002253;28;1321;-73
2021/08/28 14:08:22;;;;;;;;;;;20.40;70.30;;;;;;5003785;28;1329;-74
2021/08/28 14:10:47;;;;;;;;;;;20.40;71.00;;;;;;4996030;28;1275;-74
2021/08/28 14:13:13;;;;;;;;;;;20.50;70.30;;;;;;4995868;28;1329;-73
2021/08/28 14:15:38;;;;;;;;;;;20.50;70.30;;;;;;4995085;28;1902;-73
2021/08/28 14:18:04;;;;;;;;;;;20.50;70.30;;;;;;4996280;28;1088;-74
2021/08/28 14:20:29;;;;;;;;;;;20.50;70.30;;;;;;4987281;28;1335;-73
2021/08/28 14:22:55;;;;;;;;;;;20.50;70.30;;;;;;5029214;23;2100;-64
2021/08/28 14:25:20;;;;;;;;;;;20.50;70.30;;;;;;5015108;28;1253;-64
2021/08/28 14:27:45;;;;;;;;;;;20.50;70.30;;;;;;5014083;28;1142;-64